Munich Airport

Airport
ICAO code: 
EDDM
IATA Code: 
MUC
Summary
ICAO Region: 
EUR
Territory: 
Location: 
Freisig,
Serving: 
Munich
Elevation: 
1487 ft
Coordinates: 
Aerial View: 
48° 21' 14.325" N, 11° 46' 53.614" E
Metar
Observation
EDDM 070220Z 18007KT 9999 SCT037 M01/M02 Q1011 NOSIG
Station
Munchen
Date/Time
2021-12-07 02:20:00
Wind direction
180°
Wind speed
07 kts
Lowest cloud amount
scattered clouds
Temperature
-1°C
Dew point
-2°C
Humidity
92%
QNH
1011 hPa
Weather condition
n/a

Description

International airport serving Munich in Southern Germany.

Climatology

Humid Continental climate (Köppen climate classification Dfb) - Variable weather patterns and a large seasonal temperature variance. Summers are often warm and humid with frequent thunderstorms and winters can be very cold with frequent snowfall and persistent snow cover.

Munich's altitude and proximity to the northern edge of the Alps mean that precipitation is high. Rain storms often come violently and unexpectedly. The range of temperature between day and night or summer and winter can be extreme. A warm downwind from the Alps (a föhn wind) can change the temperatures completely within a few hours, even in the winter.

Runways

Designator Length Width Surface Rops
08L/26R 4000 60 CON Yes/Yes
08R/26L 4000 60 CON Yes/Yes
Airport map: 
Aerial View: 

SKYbrary Partners:

Safety knowledge contributed by: